Time;durP1;ratioP1;P1;durP2;ratioP2;P2;SDS_P1;SDS_P2;PMS_P1;PMS_P2;Temp;Humidity;BMP_temperature;BMP_pressure;BME280_temperature;BME280_humidity;BME280_pressure;Samples;Min_cycle;Max_cycle;Signal;HPM_P1;HPM_P2
2022/09/27 00:02:20;;;;;;;4.32;0.70;;;10.10;99.90;;;;;;5077260;28;20048;-76
2022/09/27 00:04:45;;;;;;;2.20;0.30;;;10.20;99.90;;;;;;5078834;28;20075;-75
2022/09/27 00:07:11;;;;;;;7.28;0.77;;;10.20;99.90;;;;;;5086913;28;20056;-76
2022/09/27 00:09:37;;;;;;;2.78;0.60;;;10.30;99.90;;;;;;5084931;28;20047;-76
2022/09/27 00:12:03;;;;;;;3.80;0.43;;;10.20;99.90;;;;;;5093536;28;20035;-77
2022/09/27 00:14:28;;;;;;;2.13;0.38;;;10.20;99.90;;;;;;5098286;28;20055;-75
2022/09/27 00:16:55;;;;;;;5.45;1.00;;;10.40;99.90;;;;;;5059336;28;20039;-77
2022/09/27 00:19:22;;;;;;;7.18;1.48;;;10.40;99.90;;;;;;5075088;28;20048;-75
2022/09/27 00:21:49;;;;;;;5.95;0.75;;;10.20;99.90;;;;;;5087926;28;20425;-77
2022/09/27 00:24:18;;;;;;;5.00;0.52;;;10.30;99.90;;;;;;5084579;28;20043;-78
2022/09/27 00:26:45;;;;;;;4.55;0.70;;;10.10;99.90;;;;;;5090098;28;20041;-76
2022/09/27 00:29:12;;;;;;;2.92;0.60;;;10.10;99.90;;;;;;5067583;28;20044;-76
2022/09/27 00:31:38;;;;;;;5.20;1.02;;;10.20;99.90;;;;;;5073038;28;20044;-75
2022/09/27 00:34:05;;;;;;;5.03;0.80;;;10.30;99.90;;;;;;5062045;28;20126;-75
2022/09/27 00:36:31;;;;;;;5.15;0.50;;;10.30;99.90;;;;;;5068792;28;20063;-77
2022/09/27 00:39:00;;;;;;;3.13;0.80;;;10.10;99.90;;;;;;5076247;28;20060;-79
2022/09/27 00:41:29;;;;;;;6.60;0.85;;;9.90;99.90;;;;;;5072553;28;20155;-76
2022/09/27 00:44:00;;;;;;;7.38;0.93;;;10.00;99.90;;;;;;5068974;28;20423;-78
2022/09/27 00:46:46;;;;;;;5.93;0.85;;;10.30;99.90;;;;;;5097803;28;20105;-75
2022/09/27 00:49:28;;;;;;;3.53;0.70;;;10.10;99.90;;;;;;5046227;28;20067;-78
2022/09/27 00:52:08;;;;;;;6.65;1.60;;;10.20;99.90;;;;;;5086851;28;20060;-76
2022/09/27 00:54:37;;;;;;;9.43;1.05;;;10.20;99.90;;;;;;5074802;28;20085;-76
2022/09/27 00:57:04;;;;;;;3.72;0.55;;;10.00;99.90;;;;;;5098170;28;20379;-79
2022/09/27 00:59:34;;;;;;;2.95;0.70;;;9.90;99.90;;;;;;5067182;28;20481;-78
2022/09/27 01:02:01;;;;;;;6.10;0.52;;;10.00;99.90;;;;;;5064392;28;20080;-76
2022/09/27 01:04:29;;;;;;;5.25;0.82;;;10.00;99.90;;;;;;5086040;28;20508;-79
2022/09/27 01:06:55;;;;;;;5.55;0.80;;;10.00;99.90;;;;;;5083821;28;20062;-78
2022/09/27 01:09:22;;;;;;;3.20;0.70;;;9.90;99.90;;;;;;5079114;28;20487;-75
2022/09/27 01:12:04;;;;;;;5.40;0.55;;;10.10;99.90;;;;;;5092121;28;20118;-78
2022/09/27 01:14:35;;;;;;;5.55;1.33;;;10.10;99.90;;;;;;5070296;28;20055;-78
2022/09/27 01:17:17;;;;;;;2.17;0.70;;;9.90;99.90;;;;;;5077239;28;20145;-78
2022/09/27 01:20:12;;;;;;;3.97;0.68;;;9.80;99.90;;;;;;5072194;28;20040;-77
2022/09/27 01:23:02;;;;;;;2.60;1.10;;;9.90;99.90;;;;;;5077768;28;20047;-78
2022/09/27 01:26:01;;;;;;;3.80;0.40;;;10.00;99.90;;;;;;5073478;28;20045;-78
2022/09/27 01:28:48;;;;;;;3.42;0.60;;;9.90;99.90;;;;;;5067004;28;20174;-77
2022/09/27 01:31:20;;;;;;;12.80;1.83;;;9.70;99.90;;;;;;5070248;28;20090;-77
2022/09/27 01:34:08;;;;;;;2.90;0.68;;;9.70;99.90;;;;;;5081114;28;20063;-75
2022/09/27 01:36:55;;;;;;;0.70;0.20;;;9.70;99.90;;;;;;5085651;28;20471;-78
2022/09/27 01:39:35;;;;;;;1.92;0.75;;;10.00;99.90;;;;;;5087232;28;20047;-77
2022/09/27 01:42:33;;;;;;;5.65;0.98;;;9.80;99.90;;;;;;5066048;28;20399;-75
2022/09/27 01:45:21;;;;;;;1.77;0.57;;;10.00;99.90;;;;;;5078570;28;20052;-76
2022/09/27 01:47:50;;;;;;;6.57;1.15;;;10.10;99.90;;;;;;5067660;28;20080;-77
2022/09/27 01:50:22;;;;;;;7.78;1.83;;;10.00;99.90;;;;;;5085624;28;20091;-78
2022/09/27 01:52:53;;;;;;;11.15;1.63;;;10.00;99.90;;;;;;5054018;28;20075;-77
2022/09/27 01:55:23;;;;;;;4.00;1.33;;;10.00;99.90;;;;;;5073857;28;20102;-78
2022/09/27 01:57:56;;;;;;;3.20;0.57;;;10.10;99.90;;;;;;5069104;28;20092;-76
2022/09/27 02:00:22;;;;;;;4.65;0.73;;;9.90;99.90;;;;;;5083331;28;20047;-77
2022/09/27 02:02:57;;;;;;;3.70;0.80;;;9.90;99.90;;;;;;5098252;28;20040;-78
2022/09/27 02:05:30;;;;;;;8.30;1.20;;;10.10;99.90;;;;;;5072637;28;20040;-78
2022/09/27 02:08:05;;;;;;;4.18;0.40;;;10.10;99.90;;;;;;5088712;28;20442;-79
2022/09/27 02:10:39;;;;;;;2.15;0.40;;;9.90;99.90;;;;;;5074326;28;20094;-77
2022/09/27 02:13:36;;;;;;;4.22;0.90;;;10.20;99.90;;;;;;5067951;28;20044;-75
2022/09/27 02:16:22;;;;;;;16.85;3.25;;;10.10;99.90;;;;;;5040002;28;20052;-79
2022/09/27 02:19:17;;;;;;;3.40;1.08;;;10.00;99.90;;;;;;5051580;28;20032;-75
2022/09/27 02:22:04;;;;;;;7.18;1.33;;;10.10;99.90;;;;;;5083619;28;20135;-73
2022/09/27 02:24:39;;;;;;;4.05;0.40;;;10.20;99.90;;;;;;5068851;28;20059;-77
2022/09/27 02:27:17;;;;;;;7.20;0.80;;;9.80;99.90;;;;;;5080774;28;20045;-77
2022/09/27 02:29:52;;;;;;;5.70;0.85;;;10.10;99.90;;;;;;5079905;28;20059;-75
2022/09/27 02:32:18;;;;;;;5.90;0.98;;;10.00;99.90;;;;;;5074300;28;20071;-76
2022/09/27 02:34:45;;;;;;;1.60;0.43;;;9.70;99.90;;;;;;5072049;28;20067;-75
2022/09/27 02:37:11;;;;;;;1.80;0.55;;;9.90;99.90;;;;;;5101353;28;20040;-76
2022/09/27 02:39:37;;;;;;;2.25;0.30;;;9.80;99.90;;;;;;5051745;28;20501;-77
2022/09/27 02:42:04;;;;;;;5.25;0.20;;;9.70;99.90;;;;;;5085192;28;20394;-75
2022/09/27 02:44:30;;;;;;;4.20;0.50;;;9.70;99.90;;;;;;5071862;28;20557;-76
2022/09/27 02:47:03;;;;;;;2.10;0.50;;;9.90;99.90;;;;;;5078755;28;20088;-75
2022/09/27 02:49:58;;;;;;;0.50;0.10;;;9.90;99.90;;;;;;5069696;28;20037;-75
2022/09/27 02:52:27;;;;;;;4.95;0.95;;;9.90;99.90;;;;;;5079733;28;20056;-77
2022/09/27 02:55:11;;;;;;;8.02;1.13;;;9.60;99.90;;;;;;5063342;28;20052;-75
2022/09/27 02:57:46;;;;;;;6.20;1.15;;;9.80;99.90;;;;;;5085294;28;20044;-74
2022/09/27 03:00:21;;;;;;;3.88;0.40;;;9.80;99.90;;;;;;5084280;28;20040;-74
2022/09/27 03:03:08;;;;;;;3.25;0.30;;;9.80;99.90;;;;;;4622196;22;21890;-74
2022/09/27 03:05:45;;;;;;;8.38;0.80;;;9.80;99.90;;;;;;5010303;28;20431;-76
2022/09/27 03:08:12;;;;;;;9.02;1.17;;;9.70;99.90;;;;;;5026822;28;20052;-76
2022/09/27 03:10:38;;;;;;;5.70;0.60;;;9.80;99.90;;;;;;5028524;28;20077;-76
2022/09/27 03:13:04;;;;;;;4.82;0.40;;;9.70;99.90;;;;;;5024335;28;20084;-76
2022/09/27 03:15:30;;;;;;;7.47;1.20;;;9.60;99.90;;;;;;5015969;28;20053;-76
2022/09/27 03:17:56;;;;;;;4.60;0.40;;;9.60;99.90;;;;;;5025716;28;20057;-74
2022/09/27 03:20:22;;;;;;;5.82;0.32;;;9.50;99.90;;;;;;5027536;28;20375;-75
2022/09/27 03:22:48;;;;;;;2.08;0.30;;;9.60;99.90;;;;;;5028550;28;20411;-75
2022/09/27 03:25:13;;;;;;;4.22;0.60;;;9.50;99.90;;;;;;5025307;28;20042;-76
2022/09/27 03:27:39;;;;;;;4.78;0.80;;;9.80;99.90;;;;;;5026469;28;20045;-76
2022/09/27 03:30:06;;;;;;;2.97;0.50;;;9.70;99.90;;;;;;5028587;28;20337;-74
2022/09/27 03:32:32;;;;;;;3.35;0.63;;;9.60;99.90;;;;;;5025804;28;20072;-75
2022/09/27 03:34:57;;;;;;;3.55;1.05;;;9.40;99.90;;;;;;5026756;28;20095;-75
2022/09/27 03:37:23;;;;;;;4.82;1.38;;;9.50;99.90;;;;;;5023820;28;20114;-76
2022/09/27 03:39:49;;;;;;;20.75;0.95;;;9.50;99.90;;;;;;5027224;28;20045;-74
2022/09/27 03:42:14;;;;;;;2.47;0.30;;;9.50;99.90;;;;;;5027822;28;20041;-76
2022/09/27 03:44:40;;;;;;;2.58;0.55;;;9.50;99.90;;;;;;5023476;28;20041;-75
2022/09/27 03:47:06;;;;;;;2.70;1.30;;;9.70;99.90;;;;;;5026193;28;20398;-76
2022/09/27 03:49:32;;;;;;;4.90;0.95;;;9.70;99.90;;;;;;5042092;28;20043;-75
2022/09/27 03:51:57;;;;;;;3.63;0.30;;;9.40;99.90;;;;;;5027741;28;20038;-75
2022/09/27 03:54:23;;;;;;;1.02;0.52;;;9.40;99.90;;;;;;5025007;28;20049;-75
2022/09/27 03:56:50;;;;;;;5.63;0.50;;;9.60;99.90;;;;;;5030043;28;20056;-75
2022/09/27 03:59:16;;;;;;;1.75;0.38;;;9.40;99.90;;;;;;5027496;28;20762;-77
2022/09/27 04:01:43;;;;;;;2.58;0.50;;;9.50;99.90;;;;;;5023940;28;20088;-76
2022/09/27 04:04:09;;;;;;;3.85;0.45;;;9.60;99.90;;;;;;5015282;28;20061;-75
2022/09/27 04:06:35;;;;;;;7.28;0.75;;;9.30;99.90;;;;;;5027681;28;20048;-75
2022/09/27 04:09:01;;;;;;;2.30;0.32;;;9.60;99.90;;;;;;5026367;28;20034;-76
2022/09/27 04:11:26;;;;;;;2.00;0.32;;;9.50;99.90;;;;;;5027783;28;20183;-75
2022/09/27 04:13:52;;;;;;;1.55;0.68;;;9.60;99.90;;;;;;5027692;28;20037;-75
2022/09/27 04:16:18;;;;;;;4.15;0.50;;;9.60;99.90;;;;;;5025340;28;20566;-77
2022/09/27 04:18:43;;;;;;;1.90;1.00;;;9.40;99.90;;;;;;5025602;28;20041;-75
2022/09/27 04:21:09;;;;;;;7.75;1.20;;;9.60;99.90;;;;;;5027553;28;20045;-75
2022/09/27 04:23:35;;;;;;;4.03;1.15;;;9.60;99.90;;;;;;5027993;28;20125;-77
2022/09/27 04:26:01;;;;;;;7.22;1.50;;;9.40;99.90;;;;;;5026853;28;20061;-75
2022/09/27 04:28:28;;;;;;;6.78;0.85;;;9.50;99.90;;;;;;5025047;28;20045;-76
2022/09/27 04:30:55;;;;;;;4.40;0.65;;;9.50;99.90;;;;;;5028051;28;20050;-77
2022/09/27 04:33:20;;;;;;;3.45;0.52;;;9.50;99.90;;;;;;5025950;28;20045;-74
2022/09/27 04:38:31;;;;;;;11.85;1.08;;;9.40;99.90;;;;;;5026487;28;20405;-76
2022/09/27 04:40:57;;;;;;;9.52;1.20;;;9.20;99.90;;;;;;5026535;28;20075;-76
2022/09/27 04:43:23;;;;;;;2.97;1.33;;;9.10;99.90;;;;;;5025749;28;20427;-75
2022/09/27 04:45:48;;;;;;;4.25;1.42;;;9.10;99.90;;;;;;5021580;28;20038;-76
2022/09/27 04:48:14;;;;;;;2.80;0.80;;;9.20;99.90;;;;;;5040772;28;20050;-76
2022/09/27 04:50:40;;;;;;;3.10;0.88;;;9.10;99.90;;;;;;5022956;28;20049;-74
2022/09/27 04:53:06;;;;;;;7.10;1.05;;;9.30;99.90;;;;;;5026103;28;20491;-76
2022/09/27 04:55:31;;;;;;;5.20;0.80;;;9.20;99.90;;;;;;5026403;28;20407;-76
2022/09/27 04:57:58;;;;;;;10.93;1.90;;;9.10;99.90;;;;;;5027058;28;20742;-74
2022/09/27 05:00:24;;;;;;;4.35;0.80;;;9.20;99.90;;;;;;5026523;28;20045;-76
2022/09/27 05:02:49;;;;;;;5.28;1.10;;;9.10;99.90;;;;;;5024782;28;20037;-76
2022/09/27 05:05:15;;;;;;;4.57;0.75;;;9.20;99.90;;;;;;5025129;28;20471;-75
2022/09/27 05:07:41;;;;;;;2.92;0.82;;;8.90;99.90;;;;;;5018772;28;20077;-75
2022/09/27 05:10:08;;;;;;;3.67;0.65;;;8.90;99.90;;;;;;5026987;28;20110;-75
2022/09/27 05:12:34;;;;;;;11.30;1.95;;;8.90;99.90;;;;;;5025907;28;20159;-76
2022/09/27 05:15:00;;;;;;;2.92;0.45;;;9.10;99.90;;;;;;5027478;28;20110;-75
2022/09/27 05:17:26;;;;;;;1.92;0.38;;;9.20;99.90;;;;;;5023830;28;21279;-75
2022/09/27 05:19:52;;;;;;;5.85;1.42;;;9.10;99.90;;;;;;5025256;28;20034;-75
2022/09/27 05:22:19;;;;;;;3.95;0.50;;;9.20;99.90;;;;;;5025555;28;20204;-75
2022/09/27 05:24:45;;;;;;;5.10;0.93;;;9.00;99.90;;;;;;5024622;28;20046;-77
2022/09/27 05:27:19;;;;;;;6.03;0.80;;;9.10;99.90;;;;;;5025557;28;20053;-76
2022/09/27 05:29:45;;;;;;;5.55;0.73;;;9.20;99.90;;;;;;5023442;28;20057;-77
2022/09/27 05:32:11;;;;;;;3.72;0.73;;;8.90;99.90;;;;;;5022963;28;20045;-76
2022/09/27 05:34:37;;;;;;;5.95;1.05;;;8.90;99.90;;;;;;5025185;28;20408;-74
2022/09/27 05:37:03;;;;;;;2.30;0.63;;;9.10;99.90;;;;;;5024669;28;20041;-74
2022/09/27 05:39:28;;;;;;;2.70;0.75;;;9.20;99.90;;;;;;5024324;28;20045;-75
2022/09/27 05:41:55;;;;;;;20.33;1.88;;;9.00;99.90;;;;;;5024782;28;20041;-74
2022/09/27 05:44:20;;;;;;;15.63;1.23;;;9.20;99.90;;;;;;5024943;28;20057;-74
2022/09/27 05:46:46;;;;;;;7.05;0.98;;;8.90;99.90;;;;;;5024284;28;20045;-75
2022/09/27 05:49:12;;;;;;;4.45;0.77;;;9.10;99.90;;;;;;5021229;28;20044;-75
2022/09/27 05:51:37;;;;;;;11.77;2.10;;;9.00;99.90;;;;;;5023357;28;20407;-73
2022/09/27 05:54:03;;;;;;;4.07;0.32;;;8.90;99.90;;;;;;5025699;28;20053;-74
2022/09/27 05:56:29;;;;;;;6.30;1.45;;;9.20;99.90;;;;;;5023728;28;20424;-74
2022/09/27 05:58:54;;;;;;;3.42;0.95;;;9.00;99.90;;;;;;5023639;28;20440;-74
2022/09/27 06:01:20;;;;;;;2.83;0.60;;;9.00;99.90;;;;;;5024503;28;20041;-74
2022/09/27 06:03:46;;;;;;;1.67;0.40;;;9.20;99.90;;;;;;5022413;28;20496;-74
2022/09/27 06:06:13;;;;;;;5.40;0.60;;;9.40;99.90;;;;;;5023673;28;20060;-76
2022/09/27 06:08:39;;;;;;;6.38;1.15;;;9.10;99.90;;;;;;5024943;28;20123;-74
2022/09/27 06:11:11;;;;;;;7.80;1.27;;;9.00;99.90;;;;;;5024443;28;20485;-75
2022/09/27 06:13:38;;;;;;;7.45;1.52;;;9.10;99.90;;;;;;5023353;28;20037;-75
2022/09/27 06:16:05;;;;;;;5.57;1.17;;;9.00;99.90;;;;;;5023847;28;20470;-78
2022/09/27 06:18:30;;;;;;;8.55;1.50;;;9.10;99.90;;;;;;5004098;28;20598;-77
2022/09/27 06:21:02;;;;;;;8.30;1.27;;;9.20;99.90;;;;;;5016772;28;20053;-74
2022/09/27 06:23:28;;;;;;;3.17;0.82;;;9.40;99.90;;;;;;5007814;28;20046;-75
2022/09/27 06:25:54;;;;;;;9.02;1.50;;;9.50;99.90;;;;;;5020100;28;20095;-75
2022/09/27 06:28:21;;;;;;;5.00;0.95;;;9.30;99.90;;;;;;5014965;28;20045;-74
2022/09/27 06:30:48;;;;;;;12.90;2.40;;;9.60;99.90;;;;;;5008406;28;20034;-75
2022/09/27 06:33:17;;;;;;;5.70;1.52;;;9.30;99.90;;;;;;5023616;28;20124;-75
2022/09/27 06:35:44;;;;;;;6.75;2.08;;;9.40;99.90;;;;;;5023344;28;20156;-74
2022/09/27 06:38:12;;;;;;;3.67;0.85;;;9.70;99.90;;;;;;5023981;28;20045;-74
2022/09/27 06:40:38;;;;;;;5.55;0.60;;;9.60;99.90;;;;;;5023491;28;20539;-73
2022/09/27 06:43:07;;;;;;;3.33;1.00;;;9.70;99.90;;;;;;5025193;28;20132;-75
2022/09/27 06:45:34;;;;;;;9.15;1.42;;;9.60;99.90;;;;;;5024695;28;20116;-74
2022/09/27 06:48:01;;;;;;;7.57;1.33;;;9.80;99.90;;;;;;5005094;28;20034;-76
2022/09/27 06:50:28;;;;;;;4.50;0.90;;;9.80;99.90;;;;;;5004200;28;20077;-75
2022/09/27 06:52:54;;;;;;;6.95;1.50;;;9.80;99.90;;;;;;5012103;28;20128;-75
2022/09/27 06:55:20;;;;;;;4.22;0.57;;;9.60;99.90;;;;;;5003707;28;20539;-72
2022/09/27 07:00:30;;;;;;;2.55;1.02;;;9.60;99.90;;;;;;5022060;28;20080;-73
2022/09/27 07:02:59;;;;;;;3.25;0.60;;;9.90;99.90;;;;;;5020931;28;20149;-74
2022/09/27 07:05:29;;;;;;;3.60;0.75;;;9.60;99.90;;;;;;5022660;28;20041;-73
2022/09/27 07:07:56;;;;;;;4.03;0.63;;;9.60;99.90;;;;;;5023379;28;20045;-75
2022/09/27 07:10:26;;;;;;;1.38;0.28;;;9.50;99.90;;;;;;5022641;28;20034;-73
2022/09/27 07:12:52;;;;;;;;;;;9.50;99.90;;;;;;5024172;28;20609;-76
2022/09/27 07:15:20;;;;;;;2.85;0.40;;;9.90;99.90;;;;;;5023751;28;19925;-74
2022/09/27 07:17:47;;;;;;;4.35;0.75;;;9.60;99.90;;;;;;5022373;28;20108;-75
2022/09/27 07:20:13;;;;;;;2.30;0.32;;;9.80;99.90;;;;;;5019251;28;20085;-74
2022/09/27 07:22:44;;;;;;;4.57;0.65;;;9.70;99.90;;;;;;5015216;28;20089;-75
2022/09/27 07:25:10;;;;;;;4.55;1.00;;;9.50;99.90;;;;;;5024118;28;20053;-74
2022/09/27 07:27:35;;;;;;;3.03;0.93;;;9.80;99.90;;;;;;5023556;28;20042;-73
2022/09/27 07:30:01;;;;;;;2.33;0.30;;;9.50;99.90;;;;;;5020665;28;20131;-74
2022/09/27 07:32:27;;;;;;;3.83;0.40;;;9.60;99.90;;;;;;5014946;28;20047;-74
2022/09/27 07:34:52;;;;;;;1.83;0.47;;;9.70;99.90;;;;;;5022923;28;20045;-74
2022/09/27 07:37:18;;;;;;;1.30;0.68;;;9.80;99.90;;;;;;5038126;28;20121;-73
2022/09/27 07:39:44;;;;;;;1.17;0.25;;;10.10;99.90;;;;;;5019634;28;20048;-75
2022/09/27 07:42:09;;;;;;;1.85;0.50;;;9.90;99.90;;;;;;5016590;28;20049;-74
2022/09/27 07:44:35;;;;;;;2.50;0.50;;;9.90;99.90;;;;;;5029232;28;20051;-73
2022/09/27 07:47:01;;;;;;;3.58;1.13;;;10.00;99.90;;;;;;5034859;28;20152;-74
2022/09/27 07:49:26;;;;;;;3.75;0.47;;;10.10;99.90;;;;;;5023194;28;20128;-73
2022/09/27 07:51:52;;;;;;;3.88;0.60;;;10.20;99.90;;;;;;5036857;28;20080;-73
2022/09/27 07:54:18;;;;;;;5.40;1.23;;;10.20;99.90;;;;;;5014222;28;20050;-73
2022/09/27 07:56:47;;;;;;;1.17;0.40;;;10.10;99.90;;;;;;5012128;28;20084;-73
2022/09/27 07:59:12;;;;;;;4.82;1.27;;;10.30;99.90;;;;;;5018255;28;20042;-72
2022/09/27 08:01:38;;;;;;;6.38;1.30;;;10.40;99.90;;;;;;5024481;28;20861;-73
2022/09/27 08:04:04;;;;;;;6.90;1.73;;;10.40;99.90;;;;;;5022850;28;20058;-74
2022/09/27 08:06:30;;;;;;;14.30;3.28;;;10.80;99.90;;;;;;5016742;28;20056;-74
2022/09/27 08:08:57;;;;;;;3.55;0.40;;;10.70;99.90;;;;;;5026175;28;20486;-74
2022/09/27 08:11:23;;;;;;;4.95;0.75;;;10.90;99.90;;;;;;5023744;28;20076;-74
2022/09/27 08:13:51;;;;;;;5.43;0.50;;;10.80;99.90;;;;;;5026018;28;20088;-74
2022/09/27 08:16:17;;;;;;;3.55;0.43;;;10.40;99.90;;;;;;5024732;28;20044;-75
2022/09/27 08:18:42;;;;;;;2.10;0.65;;;10.50;99.90;;;;;;5024716;28;20157;-75
2022/09/27 08:21:08;;;;;;;1.33;0.30;;;10.80;99.90;;;;;;5025391;28;20045;-74
2022/09/27 08:23:35;;;;;;;2.58;0.95;;;10.50;99.90;;;;;;5025599;28;20128;-72
2022/09/27 08:26:02;;;;;;;3.65;0.55;;;10.60;99.90;;;;;;5025933;28;20068;-75
2022/09/27 08:28:27;;;;;;;2.08;0.28;;;10.60;99.90;;;;;;5025835;28;20049;-74
2022/09/27 08:30:53;;;;;;;10.55;1.20;;;10.60;99.90;;;;;;5018024;28;20362;-76
2022/09/27 08:33:19;;;;;;;2.40;0.30;;;10.90;99.90;;;;;;5023992;28;20044;-77
2022/09/27 08:35:45;;;;;;;2.35;0.38;;;10.80;99.90;;;;;;5025092;28;20047;-77
2022/09/27 08:38:12;;;;;;;4.22;1.05;;;10.90;99.90;;;;;;5025089;28;20064;-74
2022/09/27 08:40:54;;;;;;;4.28;0.70;;;11.20;99.90;;;;;;5025778;28;20156;-74
2022/09/27 08:43:44;;;;;;;2.10;0.52;;;11.50;99.90;;;;;;5025395;28;20049;-74
2022/09/27 08:46:37;;;;;;;3.88;0.73;;;11.70;99.90;;;;;;5024691;28;20073;-74
2022/09/27 08:49:16;;;;;;;2.42;0.45;;;11.70;99.90;;;;;;5026114;28;20045;-76
2022/09/27 08:51:45;;;;;;;1.65;0.30;;;11.60;99.90;;;;;;5025869;28;20053;-77
2022/09/27 08:54:14;;;;;;;7.47;0.52;;;11.50;99.90;;;;;;5023168;28;20049;-75
2022/09/27 08:56:40;;;;;;;7.10;0.90;;;11.70;99.90;;;;;;5024873;28;20073;-77
2022/09/27 08:59:14;;;;;;;4.43;0.60;;;11.50;99.90;;;;;;5026456;28;20034;-75
2022/09/27 09:01:41;;;;;;;6.40;0.88;;;11.70;99.90;;;;;;5025387;28;20176;-75
2022/09/27 09:04:09;;;;;;;2.25;0.43;;;11.80;99.90;;;;;;5016314;28;20412;-74
2022/09/27 09:06:58;;;;;;;3.63;0.35;;;11.80;99.90;;;;;;5023821;28;20050;-76
2022/09/27 09:09:39;;;;;;;1.90;0.65;;;11.70;99.90;;;;;;5026251;28;20053;-76
2022/09/27 09:14:52;;;;;;;2.22;0.73;;;11.60;99.90;;;;;;5017038;28;19924;-75
2022/09/27 09:17:29;;;;;;;3.80;1.13;;;11.90;99.90;;;;;;5041679;28;20091;-74
2022/09/27 09:20:25;;;;;;;5.07;0.98;;;11.70;99.90;;;;;;5025865;28;20077;-74
2022/09/27 09:23:09;;;;;;;10.15;2.53;;;11.60;99.90;;;;;;5021895;28;20125;-74
2022/09/27 09:26:02;;;;;;;1.13;0.40;;;11.70;99.90;;;;;;5021622;28;20053;-72
2022/09/27 09:28:37;;;;;;;1.38;0.22;;;11.50;99.90;;;;;;5020065;28;20052;-73
2022/09/27 09:31:20;;;;;;;1.85;0.20;;;11.20;99.90;;;;;;5022067;28;20073;-75
2022/09/27 09:34:19;;;;;;;1.73;0.20;;;10.70;99.90;;;;;;5025226;28;20508;-72
2022/09/27 09:36:58;;;;;;;1.93;0.20;;;10.70;99.90;;;;;;5015626;28;20059;-75
2022/09/27 09:39:37;;;;;;;5.40;0.50;;;10.80;99.90;;;;;;5005599;28;20307;-74
2022/09/27 09:42:09;;;;;;;2.73;0.93;;;10.80;99.90;;;;;;5006690;28;20428;-75
2022/09/27 09:44:58;;;;;;;2.97;0.38;;;10.60;99.90;;;;;;5011808;28;20315;-75
2022/09/27 09:47:28;;;;;;;3.15;0.15;;;11.00;99.90;;;;;;4990947;28;20049;-75
2022/09/27 09:50:02;;;;;;;2.42;0.20;;;10.90;99.90;;;;;;5025437;28;20415;-75
2022/09/27 09:52:39;;;;;;;3.63;1.00;;;11.10;99.90;;;;;;5024461;28;20633;-75
2022/09/27 09:55:22;;;;;;;3.22;0.75;;;11.60;99.90;;;;;;5025565;28;20049;-75
2022/09/27 09:58:18;;;;;;;3.47;0.73;;;11.60;99.90;;;;;;5025233;28;20477;-74
2022/09/27 10:00:46;;;;;;;3.90;0.57;;;11.40;99.90;;;;;;5019181;28;20091;-75
2022/09/27 10:03:11;;;;;;;1.75;0.30;;;11.70;99.90;;;;;;5016501;28;20064;-75
2022/09/27 10:05:37;;;;;;;4.53;0.50;;;11.90;99.90;;;;;;5016555;28;20167;-75
2022/09/27 10:08:21;;;;;;;4.53;0.63;;;12.00;99.90;;;;;;5025279;28;20091;-76
2022/09/27 10:10:47;;;;;;;5.63;1.38;;;12.20;99.90;;;;;;5017493;28;20042;-76
2022/09/27 10:13:19;;;;;;;8.57;1.75;;;12.30;99.90;;;;;;5017829;28;20092;-76
2022/09/27 10:16:13;;;;;;;4.35;0.85;;;12.20;99.90;;;;;;5025325;28;20046;-76
2022/09/27 10:18:40;;;;;;;3.80;0.65;;;12.10;99.90;;;;;;5022736;28;20071;-76
2022/09/27 10:21:29;;;;;;;4.47;0.77;;;12.00;99.90;;;;;;5014375;28;20049;-76
2022/09/27 10:24:13;;;;;;;2.53;0.70;;;11.90;99.90;;;;;;5025784;28;20045;-77
2022/09/27 10:26:42;;;;;;;7.97;1.17;;;12.10;99.90;;;;;;5013175;28;20038;-74
2022/09/27 10:29:31;;;;;;;8.07;1.63;;;11.70;99.90;;;;;;5020986;28;20041;-75
2022/09/27 10:31:58;;;;;;;1.58;0.30;;;11.50;99.90;;;;;;5005560;28;20046;-76
2022/09/27 10:34:40;;;;;;;1.48;0.20;;;10.90;99.90;;;;;;5010858;28;20601;-76
2022/09/27 10:37:12;;;;;;;1.17;0.65;;;10.60;99.90;;;;;;5024161;28;20052;-76
2022/09/27 10:39:40;;;;;;;2.08;0.40;;;10.60;99.90;;;;;;5017681;28;20057;-73
2022/09/27 10:42:32;;;;;;;0.80;0.50;;;10.50;99.90;;;;;;5008017;28;21825;-74
2022/09/27 10:45:21;;;;;;;7.90;1.38;;;10.80;99.90;;;;;;5023850;28;20049;-75
2022/09/27 10:47:47;;;;;;;2.38;0.30;;;10.70;99.90;;;;;;5022298;28;20084;-76
2022/09/27 10:50:25;;;;;;;1.67;0.63;;;10.80;99.90;;;;;;5010618;28;20397;-76
2022/09/27 10:53:20;;;;;;;4.40;0.30;;;10.80;99.90;;;;;;5012194;28;20064;-74
2022/09/27 10:55:49;;;;;;;4.28;0.30;;;10.90;99.90;;;;;;5024880;28;20046;-76
2022/09/27 10:58:24;;;;;;;0.73;0.10;;;10.90;99.90;;;;;;5023535;28;20179;-74
2022/09/27 11:01:05;;;;;;;5.13;0.73;;;11.00;99.90;;;;;;5023802;28;20550;-77
2022/09/27 11:03:35;;;;;;;3.13;0.30;;;11.30;99.90;;;;;;5020844;28;20124;-76
2022/09/27 11:06:25;;;;;;;1.75;0.20;;;11.50;99.90;;;;;;5021713;28;20053;-75
2022/09/27 11:08:52;;;;;;;4.32;0.85;;;11.70;99.90;;;;;;5015127;28;20500;-77
2022/09/27 11:11:26;;;;;;;2.53;0.20;;;11.70;99.90;;;;;;5024040;28;20049;-72
2022/09/27 11:13:58;;;;;;;1.63;0.50;;;11.90;99.90;;;;;;5022579;28;20045;-75
2022/09/27 11:16:49;;;;;;;1.08;0.10;;;11.90;99.90;;;;;;5021020;28;20079;-76
2022/09/27 11:19:34;;;;;;;3.20;0.43;;;12.10;99.90;;;;;;5017705;28;20057;-74
2022/09/27 11:22:37;;;;;;;3.08;0.30;;;12.00;99.90;;;;;;5023365;28;20124;-77
2022/09/27 11:25:28;;;;;;;3.45;0.30;;;12.30;99.90;;;;;;5024599;28;20037;-76
2022/09/27 11:28:28;;;;;;;10.15;1.65;;;12.10;99.90;;;;;;5022819;28;20088;-77
2022/09/27 11:31:02;;;;;;;1.35;0.22;;;11.80;99.90;;;;;;5026477;28;20087;-76
2022/09/27 11:33:57;;;;;;;2.38;0.20;;;11.80;99.90;;;;;;5020111;28;20050;-76
2022/09/27 11:36:56;;;;;;;2.33;0.20;;;11.50;99.90;;;;;;5005972;28;20132;-76
2022/09/27 11:39:50;;;;;;;2.58;0.32;;;11.80;99.90;;;;;;5024885;28;20085;-75
2022/09/27 11:42:46;;;;;;;3.85;0.80;;;11.70;99.90;;;;;;5024070;28;20041;-74
2022/09/27 11:45:37;;;;;;;2.25;0.40;;;11.70;99.90;;;;;;5038431;28;20033;-78
2022/09/27 11:48:21;;;;;;;3.22;0.40;;;11.90;99.90;;;;;;5014662;28;20477;-76
2022/09/27 11:51:03;;;;;;;1.63;0.35;;;12.00;99.90;;;;;;5018765;28;20522;-70
2022/09/27 11:53:47;;;;;;;0.68;0.10;;;11.80;99.90;;;;;;5021059;28;20140;-74
2022/09/27 11:56:30;;;;;;;0.85;0.20;;;11.90;99.90;;;;;;5024400;28;20047;-75
2022/09/27 11:59:07;;;;;;;0.40;0.10;;;11.70;99.90;;;;;;5036842;28;20043;-75
2022/09/27 12:01:45;;;;;;;2.35;0.43;;;11.60;99.90;;;;;;5035635;28;20060;-75
2022/09/27 12:04:21;;;;;;;0.55;0.20;;;11.50;99.90;;;;;;5027800;28;20054;-74
2022/09/27 12:07:06;;;;;;;3.45;0.38;;;11.40;99.90;;;;;;5026333;28;20375;-76
2022/09/27 12:09:54;;;;;;;2.65;0.52;;;11.50;99.90;;;;;;4626685;22;22168;-75
2022/09/27 12:12:27;;;;;;;1.52;0.38;;;11.70;99.90;;;;;;5077884;28;20112;-76
2022/09/27 12:15:05;;;;;;;4.07;0.70;;;11.80;99.90;;;;;;5060934;28;20193;-75
2022/09/27 12:17:37;;;;;;;1.00;0.38;;;11.70;99.90;;;;;;5068456;28;20052;-76
2022/09/27 12:20:15;;;;;;;4.07;0.75;;;12.20;99.90;;;;;;5068726;28;20036;-74
2022/09/27 12:23:06;;;;;;;7.47;1.70;;;12.40;99.90;;;;;;5069758;28;20472;-76
2022/09/27 12:25:42;;;;;;;1.08;0.20;;;12.30;99.90;;;;;;5053328;28;20376;-75
2022/09/27 12:28:19;;;;;;;1.45;0.40;;;12.50;99.90;;;;;;5055186;28;20069;-76
2022/09/27 12:30:54;;;;;;;2.30;0.73;;;12.60;99.90;;;;;;5081042;28;20051;-75
2022/09/27 12:33:38;;;;;;;2.85;1.27;;;12.80;99.90;;;;;;5071058;28;20079;-75
2022/09/27 12:36:09;;;;;;;3.75;0.40;;;12.80;99.90;;;;;;5085257;28;20910;-76
2022/09/27 12:38:54;;;;;;;5.57;0.47;;;12.50;99.90;;;;;;5067724;28;20048;-77
2022/09/27 12:41:23;;;;;;;3.70;0.40;;;12.50;99.90;;;;;;5065513;28;20080;-77
2022/09/27 12:43:49;;;;;;;2.43;0.30;;;12.50;99.90;;;;;;5061452;28;20040;-76
2022/09/27 12:46:44;;;;;;;1.50;0.70;;;12.50;99.90;;;;;;5067817;28;20051;-76
2022/09/27 12:49:31;;;;;;;1.83;1.02;;;12.60;99.90;;;;;;5068893;28;20036;-75
2022/09/27 12:52:07;;;;;;;0.70;0.25;;;12.70;99.90;;;;;;5065117;28;20056;-76
2022/09/27 12:54:46;;;;;;;1.02;0.35;;;12.60;99.90;;;;;;5053499;28;20036;-77
2022/09/27 12:57:26;;;;;;;0.65;0.43;;;12.30;99.90;;;;;;5048882;28;20041;-75
2022/09/27 13:00:01;;;;;;;2.15;0.57;;;11.90;99.90;;;;;;5047766;28;20059;-74
2022/09/27 13:03:08;;;;;;;2.30;0.52;;;11.50;99.90;;;;;;5049092;28;20396;-74
2022/09/27 13:06:01;;;;;;;0.17;0.10;;;11.20;99.90;;;;;;5054839;28;20086;-74
2022/09/27 13:08:30;;;;;;;2.05;1.05;;;10.90;99.90;;;;;;5059667;28;20151;-75
2022/09/27 13:11:17;;;;;;;4.22;0.30;;;10.80;99.90;;;;;;5056271;28;20106;-75
2022/09/27 13:13:43;;;;;;;2.22;0.50;;;10.90;99.90;;;;;;5077177;28;20194;-75
2022/09/27 13:16:09;;;;;;;1.23;0.30;;;11.20;99.90;;;;;;5068678;28;20043;-76
2022/09/27 13:18:34;;;;;;;2.45;0.20;;;11.10;99.90;;;;;;5086257;28;20115;-75
2022/09/27 13:21:06;;;;;;;14.38;1.25;;;11.50;99.90;;;;;;5051665;28;20454;-74
2022/09/27 13:23:34;;;;;;;1.48;0.40;;;11.40;99.90;;;;;;5053444;28;20083;-74
2022/09/27 13:26:21;;;;;;;0.25;0.08;;;11.30;99.90;;;;;;5074447;28;20101;-73
2022/09/27 13:28:47;;;;;;;2.00;0.20;;;10.80;99.90;;;;;;5066863;28;20087;-73